Time;durP1;ratioP1;P1;durP2;ratioP2;P2;SDS_P1;SDS_P2;PMS_P1;PMS_P2;Temp;Humidity;BMP_temperature;BMP_pressure;BME280_temperature;BME280_humidity;BME280_pressure;Samples;Min_cycle;Max_cycle;Signal;HPM_P1;HPM_P2
2023/12/15 00:01:03;;;;;;;28.90;11.13;;;;;;;-148.88;100.00;-17125.47;5075835;28;20017;-85
2023/12/15 00:03:28;;;;;;;25.17;9.20;;;;;;;-148.88;100.00;-17125.47;5076051;28;20036;-85
2023/12/15 00:05:54;;;;;;;25.83;9.65;;;;;;;-148.88;100.00;-17125.47;5076210;28;20078;-85
2023/12/15 00:08:19;;;;;;;26.75;9.05;;;;;;;-148.88;100.00;-17125.47;5075762;28;20612;-85
2023/12/15 00:10:45;;;;;;;25.20;9.45;;;;;;;-148.88;100.00;-17125.47;5075726;28;20032;-85
2023/12/15 00:13:10;;;;;;;32.20;11.23;;;;;;;-148.88;100.00;-17125.47;5076097;28;20109;-85
2023/12/15 00:15:35;;;;;;;25.88;9.60;;;;;;;-148.88;100.00;-17125.47;5075920;28;20032;-84
2023/12/15 00:18:01;;;;;;;26.88;9.23;;;;;;;-148.88;100.00;-17125.47;5076666;28;20025;-84
2023/12/15 00:20:27;;;;;;;31.75;9.77;;;;;;;-148.88;100.00;-17125.47;5074466;28;20015;-83
2023/12/15 00:22:54;;;;;;;24.85;9.63;;;;;;;-148.88;100.00;-17125.47;5075441;28;20111;-85
2023/12/15 00:25:20;;;;;;;28.05;9.98;;;;;;;-148.88;100.00;-17125.47;5074152;28;20035;-85
2023/12/15 00:27:45;;;;;;;27.27;10.63;;;;;;;-148.88;100.00;-17125.47;5075270;28;20017;-85
2023/12/15 00:30:11;;;;;;;32.97;9.95;;;;;;;-148.88;100.00;-17125.47;5075309;28;20056;-84
2023/12/15 00:32:37;;;;;;;27.88;9.25;;;;;;;-148.88;100.00;-17125.47;5075314;28;20020;-83
2023/12/15 00:35:02;;;;;;;27.38;9.40;;;;;;;-148.88;100.00;-17125.47;5074795;28;20028;-84
2023/12/15 00:37:27;;;;;;;30.17;10.15;;;;;;;-148.88;100.00;-17125.47;5075260;28;20047;-85
2023/12/15 00:39:53;;;;;;;26.13;9.88;;;;;;;-148.88;100.00;-17125.47;5074022;28;20020;-84
2023/12/15 00:42:18;;;;;;;31.98;9.88;;;;;;;-148.88;100.00;-17125.47;5075231;28;20021;-85
2023/12/15 00:44:44;;;;;;;31.42;11.77;;;;;;;-148.88;100.00;-17125.47;5073956;28;20021;-83
2023/12/15 00:47:09;;;;;;;29.80;11.00;;;;;;;-148.88;100.00;-17125.47;5074830;28;20391;-83
2023/12/15 00:49:34;;;;;;;30.15;10.35;;;;;;;-148.88;100.00;-17125.47;5076163;28;20071;-85
2023/12/15 00:52:00;;;;;;;31.35;10.95;;;;;;;-148.88;100.00;-17125.47;5075193;28;20024;-85
2023/12/15 00:54:25;;;;;;;33.03;12.10;;;;;;;-148.88;100.00;-17125.47;5075681;28;20017;-84
2023/12/15 00:56:50;;;;;;;30.48;10.18;;;;;;;-148.88;100.00;-17125.47;5075509;28;20024;-83
2023/12/15 00:59:16;;;;;;;32.45;10.45;;;;;;;-148.88;100.00;-17125.47;5075275;28;20055;-85
2023/12/15 01:01:41;;;;;;;35.40;10.93;;;;;;;-148.88;100.00;-17125.47;5073908;28;20065;-84
2023/12/15 01:04:07;;;;;;;30.10;9.27;;;;;;;-148.88;100.00;-17125.47;5074964;28;20039;-84
2023/12/15 01:06:32;;;;;;;33.13;11.90;;;;;;;-148.88;100.00;-17125.47;5075128;28;20051;-84
2023/12/15 01:08:57;;;;;;;31.00;10.32;;;;;;;-148.88;100.00;-17125.47;5074729;28;20024;-84
2023/12/15 01:11:23;;;;;;;32.83;11.20;;;;;;;-148.88;100.00;-17125.47;5074488;28;20497;-85
2023/12/15 01:13:48;;;;;;;31.58;10.82;;;;;;;-148.88;100.00;-17125.47;5073130;28;20388;-82
2023/12/15 01:16:13;;;;;;;31.88;10.57;;;;;;;-148.88;100.00;-17125.47;5074543;28;20038;-84
2023/12/15 01:18:39;;;;;;;36.63;14.52;;;;;;;-148.88;100.00;-17125.47;5074487;28;20024;-85
2023/12/15 01:21:05;;;;;;;36.42;11.55;;;;;;;-148.88;100.00;-17125.47;5075185;28;20020;-84
2023/12/15 01:23:31;;;;;;;34.97;11.68;;;;;;;-148.88;100.00;-17125.47;5073960;28;20025;-84
2023/12/15 01:25:56;;;;;;;43.00;15.00;;;;;;;-148.88;100.00;-17125.47;5073719;28;20035;-84
2023/12/15 01:28:22;;;;;;;39.53;13.93;;;;;;;-148.88;100.00;-17125.47;5075130;28;20024;-84
2023/12/15 01:30:47;;;;;;;38.90;13.15;;;;;;;-148.88;100.00;-17125.47;5074232;28;20052;-83
2023/12/15 01:33:13;;;;;;;44.33;15.48;;;;;;;-148.88;100.00;-17125.47;5072699;28;20027;-85
2023/12/15 01:35:38;;;;;;;42.80;15.38;;;;;;;-148.88;100.00;-17125.47;5074004;28;20039;-84
2023/12/15 01:38:03;;;;;;;43.28;14.77;;;;;;;-148.88;100.00;-17125.47;5073942;28;20059;-85
2023/12/15 01:40:29;;;;;;;41.63;15.82;;;;;;;-148.88;100.00;-17125.47;5074189;28;20459;-85
2023/12/15 01:42:59;;;;;;;44.70;15.30;;;;;;;-148.88;100.00;-17125.47;5074232;28;20029;-84
2023/12/15 01:45:25;;;;;;;42.78;14.88;;;;;;;-148.88;100.00;-17125.47;5074031;28;20055;-85
2023/12/15 01:47:50;;;;;;;45.78;16.17;;;;;;;-148.88;100.00;-17125.47;5073176;28;20059;-84
2023/12/15 01:50:15;;;;;;;43.63;14.90;;;;;;;-148.88;100.00;-17125.47;5073752;28;20028;-84
2023/12/15 01:52:41;;;;;;;41.65;14.68;;;;;;;-148.88;100.00;-17125.47;5072530;28;20384;-86
2023/12/15 01:55:06;;;;;;;47.70;15.80;;;;;;;-148.88;100.00;-17125.47;5072459;28;20423;-84
2023/12/15 01:57:32;;;;;;;38.75;14.40;;;;;;;-148.88;100.00;-17125.47;5073908;28;20402;-84
2023/12/15 01:59:59;;;;;;;52.00;15.60;;;;;;;-148.88;100.00;-17125.47;5074107;28;20485;-83
2023/12/15 02:02:25;;;;;;;46.35;15.73;;;;;;;-148.88;100.00;-17125.47;5074337;28;20082;-85
2023/12/15 02:04:50;;;;;;;49.25;15.63;;;;;;;-148.88;100.00;-17125.47;5073706;28;20024;-84
2023/12/15 02:07:17;;;;;;;54.90;18.17;;;;;;;-148.88;100.00;-17125.47;5073757;28;20028;-83
2023/12/15 02:09:42;;;;;;;44.85;16.10;;;;;;;-148.88;100.00;-17125.47;5073233;28;20024;-84
2023/12/15 02:12:08;;;;;;;41.08;14.57;;;;;;;-148.88;100.00;-17125.47;5073429;28;20020;-84
2023/12/15 02:14:33;;;;;;;43.38;16.20;;;;;;;-148.88;100.00;-17125.47;5073094;28;20060;-84
2023/12/15 02:16:59;;;;;;;52.15;17.75;;;;;;;-148.88;100.00;-17125.47;5073146;28;20032;-85
2023/12/15 02:19:24;;;;;;;45.22;15.95;;;;;;;-148.88;100.00;-17125.47;5073019;28;20097;-85
2023/12/15 02:21:50;;;;;;;51.25;17.23;;;;;;;-148.88;100.00;-17125.47;5073063;28;20437;-83
2023/12/15 02:24:15;;;;;;;46.50;17.60;;;;;;;-148.88;100.00;-17125.47;5073599;28;20031;-85
2023/12/15 02:26:41;;;;;;;46.13;15.75;;;;;;;-148.88;100.00;-17125.47;5073034;28;20032;-85
2023/12/15 02:29:07;;;;;;;47.38;17.90;;;;;;;-148.88;100.00;-17125.47;5073010;28;20072;-83
2023/12/15 02:31:32;;;;;;;46.00;16.80;;;;;;;-148.88;100.00;-17125.47;5073264;28;20421;-83
2023/12/15 02:33:57;;;;;;;47.92;16.58;;;;;;;-148.88;100.00;-17125.47;5073694;28;20020;-84
2023/12/15 02:36:24;;;;;;;43.80;15.98;;;;;;;-148.88;100.00;-17125.47;5073698;28;20399;-84
2023/12/15 02:38:50;;;;;;;47.00;17.42;;;;;;;-148.88;100.00;-17125.47;5071728;28;20119;-83
2023/12/15 02:41:16;;;;;;;44.42;16.27;;;;;;;-148.88;100.00;-17125.47;5072822;28;20033;-83
2023/12/15 02:43:41;;;;;;;47.97;16.42;;;;;;;-148.88;100.00;-17125.47;5071828;28;20497;-85
2023/12/15 02:46:07;;;;;;;51.45;16.38;;;;;;;-148.88;100.00;-17125.47;5071438;28;20024;-85
2023/12/15 02:48:33;;;;;;;51.42;17.58;;;;;;;-148.88;100.00;-17125.47;5072643;28;20183;-83
2023/12/15 02:50:58;;;;;;;44.90;16.20;;;;;;;-148.88;100.00;-17125.47;5072952;28;20031;-85
2023/12/15 02:53:24;;;;;;;46.90;16.65;;;;;;;-148.88;100.00;-17125.47;5071516;28;20023;-85
2023/12/15 02:55:49;;;;;;;52.03;17.73;;;;;;;-148.88;100.00;-17125.47;5073046;28;20101;-84
2023/12/15 02:58:18;;;;;;;45.95;17.02;;;;;;;-148.88;100.00;-17125.47;5070942;28;20032;-85
2023/12/15 03:00:43;;;;;;;43.33;16.45;;;;;;;-148.88;100.00;-17125.47;5072594;28;20476;-84
2023/12/15 03:03:09;;;;;;;45.67;17.90;;;;;;;-148.88;100.00;-17125.47;5072846;28;20050;-85
2023/12/15 03:05:35;;;;;;;47.25;16.90;;;;;;;-148.88;100.00;-17125.47;5071575;28;20020;-85
2023/12/15 03:08:01;;;;;;;46.08;15.10;;;;;;;-148.88;100.00;-17125.47;5073010;28;20052;-85
2023/12/15 03:10:26;;;;;;;43.28;16.20;;;;;;;-148.88;100.00;-17125.47;5074277;28;20150;-85
2023/12/15 03:12:51;;;;;;;47.08;16.55;;;;;;;-148.88;100.00;-17125.47;5073314;28;20035;-84
2023/12/15 03:15:17;;;;;;;51.83;16.98;;;;;;;-148.88;100.00;-17125.47;5072655;28;20025;-84
2023/12/15 03:17:42;;;;;;;43.40;16.30;;;;;;;-148.88;100.00;-17125.47;5072718;28;20031;-84
2023/12/15 03:20:08;;;;;;;45.97;16.58;;;;;;;-148.88;100.00;-17125.47;5072694;28;20095;-85
2023/12/15 03:22:33;;;;;;;41.50;14.93;;;;;;;-148.88;100.00;-17125.47;5072324;28;20066;-87
2023/12/15 03:24:58;;;;;;;49.42;16.75;;;;;;;-148.88;100.00;-17125.47;5072681;28;20017;-86
2023/12/15 03:27:24;;;;;;;47.13;14.57;;;;;;;-148.88;100.00;-17125.47;5071700;28;20020;-85
2023/12/15 03:29:49;;;;;;;46.92;17.38;;;;;;;-148.88;100.00;-17125.47;5072366;28;20387;-85
2023/12/15 03:32:15;;;;;;;51.35;16.88;;;;;;;-148.88;100.00;-17125.47;5072240;28;20029;-83
2023/12/15 03:34:40;;;;;;;48.47;17.13;;;;;;;-148.88;100.00;-17125.47;5072467;28;20064;-85
2023/12/15 03:37:05;;;;;;;43.38;17.25;;;;;;;-148.88;100.00;-17125.47;5072336;28;20048;-83
2023/12/15 03:39:31;;;;;;;44.63;15.75;;;;;;;-148.88;100.00;-17125.47;5072534;28;20019;-85
2023/12/15 03:41:56;;;;;;;40.80;14.82;;;;;;;-148.88;100.00;-17125.47;5072955;28;20029;-86
2023/12/15 03:44:22;;;;;;;51.90;17.67;;;;;;;-148.88;100.00;-17125.47;5072149;28;20460;-86
2023/12/15 03:46:47;;;;;;;42.45;15.32;;;;;;;-148.88;100.00;-17125.47;5073031;28;20052;-83
2023/12/15 03:49:12;;;;;;;44.47;16.25;;;;;;;-148.88;100.00;-17125.47;5070550;28;20021;-83
2023/12/15 03:51:38;;;;;;;40.60;16.08;;;;;;;-148.88;100.00;-17125.47;5070996;28;20024;-83
2023/12/15 03:54:03;;;;;;;50.30;17.55;;;;;;;-148.88;100.00;-17125.47;5072250;28;20043;-84
2023/12/15 03:56:29;;;;;;;51.17;15.68;;;;;;;-148.88;100.00;-17125.47;5070740;28;20036;-85
2023/12/15 03:58:56;;;;;;;43.53;16.50;;;;;;;-148.88;100.00;-17125.47;5070772;28;20024;-84
2023/12/15 04:01:22;;;;;;;41.35;15.73;;;;;;;-148.88;100.00;-17125.47;5072249;28;20475;-84
2023/12/15 04:03:47;;;;;;;37.60;16.33;;;;;;;-148.88;100.00;-17125.47;5070877;28;20039;-84
2023/12/15 04:06:13;;;;;;;42.15;16.00;;;;;;;-148.88;100.00;-17125.47;5070678;28;20443;-86
2023/12/15 04:08:42;;;;;;;51.95;16.33;;;;;;;-148.88;100.00;-17125.47;5071340;28;20028;-85
2023/12/15 04:11:08;;;;;;;42.00;15.38;;;;;;;-148.88;100.00;-17125.47;5073978;28;20063;-85
2023/12/15 04:13:33;;;;;;;41.83;15.82;;;;;;;-148.88;100.00;-17125.47;5074779;28;20552;-87
2023/12/15 04:15:59;;;;;;;43.25;14.68;;;;;;;-148.88;100.00;-17125.47;5076066;28;20035;-87
2023/12/15 04:18:24;;;;;;;48.03;16.98;;;;;;;-148.88;100.00;-17125.47;5075980;28;20115;-87
2023/12/15 04:20:49;;;;;;;37.13;14.27;;;;;;;-148.88;100.00;-17125.47;5076557;28;20028;-85
2023/12/15 04:23:15;;;;;;;42.17;15.55;;;;;;;-148.88;100.00;-17125.47;5074341;28;20119;-85
2023/12/15 04:25:40;;;;;;;43.10;14.45;;;;;;;-148.88;100.00;-17125.47;5074518;28;20111;-85
2023/12/15 04:28:05;;;;;;;48.60;15.95;;;;;;;-148.88;100.00;-17125.47;5075552;28;20536;-86
2023/12/15 04:30:31;;;;;;;46.65;15.63;;;;;;;-148.88;100.00;-17125.47;5075195;28;20036;-86
2023/12/15 04:32:56;;;;;;;49.38;15.88;;;;;;;-148.88;100.00;-17125.47;5075391;28;20020;-87
2023/12/15 04:35:23;;;;;;;38.03;14.13;;;;;;;-148.88;100.00;-17125.47;5075022;28;20073;-84
2023/12/15 04:37:48;;;;;;;44.95;15.90;;;;;;;-148.88;100.00;-17125.47;5074916;28;20020;-86
2023/12/15 04:40:14;;;;;;;41.63;15.25;;;;;;;-148.88;100.00;-17125.47;5075209;28;20039;-86
2023/12/15 04:42:39;;;;;;;45.90;15.77;;;;;;;-148.88;100.00;-17125.47;5075449;28;20494;-86
2023/12/15 04:45:09;;;;;;;42.70;15.38;;;;;;;-148.88;100.00;-17125.47;5075201;28;20073;-84
2023/12/15 04:47:35;;;;;;;33.75;13.77;;;;;;;-148.88;100.00;-17125.47;5075204;28;20111;-88
2023/12/15 04:50:01;;;;;;;45.15;16.45;;;;;;;-148.88;100.00;-17125.47;5075149;28;20021;-84
2023/12/15 04:52:26;;;;;;;36.10;15.52;;;;;;;-148.88;100.00;-17125.47;5075958;28;20066;-86
2023/12/15 04:54:52;;;;;;;47.83;16.42;;;;;;;-148.88;100.00;-17125.47;5075875;28;20099;-87
2023/12/15 04:57:17;;;;;;;46.00;15.48;;;;;;;-148.88;100.00;-17125.47;5075199;28;20027;-86
2023/12/15 04:59:42;;;;;;;45.13;16.63;;;;;;;-148.88;100.00;-17125.47;5074156;28;20021;-86
2023/12/15 05:02:08;;;;;;;49.95;17.30;;;;;;;-148.88;100.00;-17125.47;5074687;28;20028;-86
2023/12/15 05:04:34;;;;;;;47.88;17.30;;;;;;;-148.88;100.00;-17125.47;5074682;28;20063;-86
2023/12/15 05:07:00;;;;;;;45.38;16.30;;;;;;;-148.88;100.00;-17125.47;5074599;28;20025;-87
2023/12/15 05:09:28;;;;;;;41.85;14.52;;;;;;;-148.88;100.00;-17125.47;5074228;28;20074;-87
2023/12/15 05:11:54;;;;;;;50.85;17.30;;;;;;;-148.88;100.00;-17125.47;5074501;28;20020;-86
2023/12/15 05:14:20;;;;;;;46.33;16.02;;;;;;;-148.88;100.00;-17125.47;5073390;28;20475;-87
2023/12/15 05:16:45;;;;;;;45.15;16.52;;;;;;;-148.88;100.00;-17125.47;5075223;28;20031;-86
2023/12/15 05:19:10;;;;;;;46.42;16.30;;;;;;;-148.88;100.00;-17125.47;5073462;28;20375;-85
2023/12/15 05:21:36;;;;;;;49.97;17.48;;;;;;;-148.88;100.00;-17125.47;5073959;28;20024;-84
2023/12/15 05:24:01;;;;;;;49.65;17.60;;;;;;;-148.88;100.00;-17125.47;5073229;28;20016;-85
2023/12/15 05:26:27;;;;;;;56.15;19.10;;;;;;;-148.88;100.00;-17125.47;5073747;28;20115;-85
2023/12/15 05:28:52;;;;;;;58.30;18.70;;;;;;;-148.88;100.00;-17125.47;5074575;28;20036;-85
2023/12/15 05:31:18;;;;;;;54.33;18.73;;;;;;;-148.88;100.00;-17125.47;5074576;28;20052;-84
2023/12/15 05:33:43;;;;;;;55.20;18.83;;;;;;;-148.88;100.00;-17125.47;5074424;28;20052;-84
2023/12/15 05:36:19;;;;;;;50.58;18.65;;;;;;;-148.88;100.00;-17125.47;5073523;28;20113;-86
2023/12/15 05:38:48;;;;;;;61.75;20.70;;;;;;;-148.88;100.00;-17125.47;5073302;28;20367;-85
2023/12/15 05:41:14;;;;;;;61.38;20.63;;;;;;;-148.88;100.00;-17125.47;5075226;28;20029;-83
2023/12/15 05:43:39;;;;;;;56.80;21.45;;;;;;;-148.88;100.00;-17125.47;5075439;28;20364;-84
2023/12/15 05:46:05;;;;;;;53.80;20.48;;;;;;;-148.88;100.00;-17125.47;5074526;28;20070;-82
2023/12/15 05:48:30;;;;;;;64.13;20.17;;;;;;;-148.88;100.00;-17125.47;5074673;28;20024;-85
2023/12/15 05:50:55;;;;;;;57.70;19.58;;;;;;;-148.88;100.00;-17125.47;5074843;28;20028;-85
2023/12/15 05:53:21;;;;;;;55.70;20.17;;;;;;;-148.88;100.00;-17125.47;5074627;28;20032;-84
2023/12/15 05:55:47;;;;;;;61.58;18.63;;;;;;;-148.88;100.00;-17125.47;5075047;28;20051;-85
2023/12/15 05:58:13;;;;;;;64.13;20.13;;;;;;;-148.88;100.00;-17125.47;5073811;28;20032;-86
2023/12/15 06:00:38;;;;;;;59.38;19.73;;;;;;;-148.88;100.00;-17125.47;5075782;28;20024;-85
2023/12/15 06:03:04;;;;;;;61.28;19.10;;;;;;;-148.88;100.00;-17125.47;5075568;28;20039;-85
2023/12/15 06:05:33;;;;;;;54.67;19.13;;;;;;;-148.88;100.00;-17125.47;5075342;28;20475;-85
2023/12/15 06:07:59;;;;;;;57.22;19.98;;;;;;;-148.88;100.00;-17125.47;5073097;28;20020;-83
2023/12/15 06:10:24;;;;;;;66.47;21.20;;;;;;;-148.88;100.00;-17125.47;5072319;28;20425;-85
2023/12/15 06:12:50;;;;;;;60.22;21.27;;;;;;;-148.88;100.00;-17125.47;5072152;28;20028;-84
2023/12/15 06:15:15;;;;;;;73.07;22.92;;;;;;;-148.88;100.00;-17125.47;5073788;28;20047;-84
2023/12/15 06:17:40;;;;;;;74.38;21.92;;;;;;;-148.88;100.00;-17125.47;5071973;28;20383;-85
2023/12/15 06:20:07;;;;;;;71.82;22.02;;;;;;;-148.88;100.00;-17125.47;5072342;28;20426;-83
2023/12/15 06:22:32;;;;;;;58.85;20.73;;;;;;;-148.88;100.00;-17125.47;5073698;28;20107;-85
2023/12/15 06:24:57;;;;;;;68.22;23.10;;;;;;;-148.88;100.00;-17125.47;5073089;28;20059;-84
2023/12/15 06:27:23;;;;;;;59.88;21.27;;;;;;;-148.88;100.00;-17125.47;5073783;28;20063;-84
2023/12/15 06:29:48;;;;;;;104.28;22.88;;;;;;;-148.88;100.00;-17125.47;5073883;28;20032;-84
2023/12/15 06:32:15;;;;;;;67.25;20.88;;;;;;;-148.88;100.00;-17125.47;5072626;28;20020;-82
2023/12/15 06:34:42;;;;;;;79.05;23.83;;;;;;;-148.88;100.00;-17125.47;5073382;28;20028;-83
2023/12/15 06:37:07;;;;;;;64.00;19.77;;;;;;;-148.88;100.00;-17125.47;5074310;28;20480;-84
2023/12/15 06:39:33;;;;;;;71.70;22.30;;;;;;;-148.88;100.00;-17125.47;5073902;28;20029;-83
2023/12/15 06:41:58;;;;;;;71.90;22.08;;;;;;;-148.88;100.00;-17125.47;5073674;28;20021;-83
2023/12/15 06:44:30;;;;;;;63.55;22.27;;;;;;;-148.88;100.00;-17125.47;5073970;28;20432;-83
2023/12/15 06:46:55;;;;;;;66.15;20.95;;;;;;;-148.88;100.00;-17125.47;5073268;28;20069;-84
2023/12/15 06:49:21;;;;;;;71.05;22.15;;;;;;;-148.88;100.00;-17125.47;5072189;28;20025;-84
2023/12/15 06:51:46;;;;;;;68.93;21.33;;;;;;;-148.88;100.00;-17125.47;5072948;28;20024;-84
2023/12/15 06:54:12;;;;;;;69.55;21.42;;;;;;;-148.88;100.00;-17125.47;5073014;28;20426;-84
2023/12/15 06:56:40;;;;;;;73.10;22.25;;;;;;;-148.88;100.00;-17125.47;5072746;28;20425;-82
2023/12/15 06:59:05;;;;;;;65.18;21.98;;;;;;;-148.88;100.00;-17125.47;5072245;28;20018;-84
2023/12/15 07:01:31;;;;;;;70.00;23.52;;;;;;;-148.88;100.00;-17125.47;5073385;28;20374;-82
2023/12/15 07:03:56;;;;;;;69.75;21.38;;;;;;;-148.88;100.00;-17125.47;5073094;28;20024;-83
2023/12/15 07:06:21;;;;;;;74.47;21.65;;;;;;;-148.88;100.00;-17125.47;5073237;28;20047;-82
2023/12/15 07:08:50;;;;;;;67.75;21.75;;;;;;;-148.88;100.00;-17125.47;5073768;28;20017;-82
2023/12/15 07:11:15;;;;;;;78.43;24.00;;;;;;;-148.88;100.00;-17125.47;5072354;28;20163;-84
2023/12/15 07:13:41;;;;;;;80.75;22.65;;;;;;;-148.88;100.00;-17125.47;5073409;28;20058;-84
2023/12/15 07:16:07;;;;;;;65.50;20.35;;;;;;;-148.88;100.00;-17125.47;5073389;28;20036;-84
2023/12/15 07:18:35;;;;;;;71.53;22.13;;;;;;;-148.88;100.00;-17125.47;5073901;28;20020;-85
2023/12/15 07:21:00;;;;;;;69.32;20.38;;;;;;;-148.88;100.00;-17125.47;5071801;28;20031;-83
2023/12/15 07:23:25;;;;;;;70.03;23.02;;;;;;;-148.88;100.00;-17125.47;5071995;28;20425;-84
2023/12/15 07:25:51;;;;;;;78.40;23.75;;;;;;;-148.88;100.00;-17125.47;5073142;28;20025;-84
2023/12/15 07:28:16;;;;;;;69.20;22.73;;;;;;;-148.88;100.00;-17125.47;5072683;28;20025;-83
2023/12/15 07:31:00;;;;;;;65.85;20.48;;;;;;;-148.88;100.00;-17125.47;5072845;28;20387;-84
2023/12/15 07:33:26;;;;;;;65.32;19.27;;;;;;;-148.88;100.00;-17125.47;5072933;28;20099;-83
2023/12/15 07:35:57;;;;;;;62.25;20.95;;;;;;;-148.88;100.00;-17125.47;5072276;28;20029;-83
2023/12/15 07:38:23;;;;;;;65.95;19.88;;;;;;;-148.88;100.00;-17125.47;5071282;28;20044;-84
2023/12/15 07:40:54;;;;;;;83.00;21.42;;;;;;;-148.88;100.00;-17125.47;5072989;28;20074;-84
2023/12/15 07:43:30;;;;;;;75.25;20.05;;;;;;;-148.88;100.00;-17125.47;5071958;28;20074;-84
2023/12/15 07:45:55;;;;;;;76.03;22.42;;;;;;;-148.88;100.00;-17125.47;5074047;28;20510;-84
2023/12/15 07:48:21;;;;;;;58.47;19.05;;;;;;;-148.88;100.00;-17125.47;5075737;28;20066;-84
2023/12/15 07:50:46;;;;;;;76.53;22.20;;;;;;;-148.88;100.00;-17125.47;5076490;28;20494;-85
2023/12/15 07:53:12;;;;;;;71.28;21.63;;;;;;;-148.88;100.00;-17125.47;5074750;28;20031;-85
2023/12/15 07:55:37;;;;;;;84.38;23.02;;;;;;;-148.88;100.00;-17125.47;5074730;28;20120;-84
2023/12/15 07:58:12;;;;;;;76.80;20.67;;;;;;;-148.88;100.00;-17125.47;5076539;28;20055;-83
2023/12/15 08:00:40;;;;;;;78.35;21.70;;;;;;;-148.88;100.00;-17125.47;5074578;28;20016;-83
2023/12/15 08:03:06;;;;;;;87.18;21.80;;;;;;;-148.88;100.00;-17125.47;5074399;28;20021;-85
2023/12/15 08:05:35;;;;;;;68.20;21.73;;;;;;;-148.88;100.00;-17125.47;5075214;28;20065;-84
2023/12/15 08:08:01;;;;;;;79.28;21.02;;;;;;;-148.88;100.00;-17125.47;5074689;28;20024;-84
2023/12/15 08:10:35;;;;;;;67.18;21.35;;;;;;;-148.88;100.00;-17125.47;5077110;28;20048;-84
2023/12/15 08:13:00;;;;;;;71.75;21.35;;;;;;;-148.88;100.00;-17125.47;5076825;28;20464;-83
2023/12/15 08:15:25;;;;;;;61.42;19.55;;;;;;;-148.88;100.00;-17125.47;5075474;28;20043;-85
2023/12/15 08:17:51;;;;;;;71.97;20.27;;;;;;;-148.88;100.00;-17125.47;5076878;28;20047;-84
2023/12/15 08:20:27;;;;;;;73.88;19.48;;;;;;;-148.88;100.00;-17125.47;5075470;28;20025;-85
2023/12/15 08:22:52;;;;;;;66.70;20.48;;;;;;;-148.88;100.00;-17125.47;5076312;28;20028;-84
2023/12/15 08:25:27;;;;;;;63.83;20.70;;;;;;;-148.88;100.00;-17125.47;5075855;28;20016;-84
2023/12/15 08:27:52;;;;;;;67.90;19.13;;;;;;;-148.88;100.00;-17125.47;5074178;28;20024;-83
2023/12/15 08:30:23;;;;;;;74.85;19.65;;;;;;;-148.88;100.00;-17125.47;5075745;28;20074;-84
2023/12/15 08:32:49;;;;;;;67.63;20.33;;;;;;;-148.88;100.00;-17125.47;5075695;28;20074;-84
2023/12/15 08:35:14;;;;;;;73.05;20.08;;;;;;;-148.88;100.00;-17125.47;5074382;28;20028;-84
2023/12/15 08:37:40;;;;;;;87.35;21.63;;;;;;;-148.88;100.00;-17125.47;5074941;28;20494;-83
2023/12/15 08:40:09;;;;;;;84.25;22.17;;;;;;;-148.88;100.00;-17125.47;5075354;28;20489;-84
2023/12/15 08:42:34;;;;;;;68.88;21.48;;;;;;;-148.88;100.00;-17125.47;5075689;28;20069;-85
2023/12/15 08:45:00;;;;;;;73.95;21.25;;;;;;;-148.88;100.00;-17125.47;5075786;28;20025;-85
2023/12/15 08:47:25;;;;;;;80.13;21.10;;;;;;;-148.88;100.00;-17125.47;5076065;28;20028;-86
2023/12/15 08:49:53;;;;;;;88.25;22.23;;;;;;;-148.88;100.00;-17125.47;5075095;28;20034;-85
2023/12/15 08:52:18;;;;;;;64.47;20.98;;;;;;;-148.88;100.00;-17125.47;5075948;28;20028;-83
2023/12/15 08:54:44;;;;;;;65.50;20.73;;;;;;;-148.88;100.00;-17125.47;5074987;28;20093;-85
2023/12/15 08:57:09;;;;;;;62.45;20.88;;;;;;;-148.88;100.00;-17125.47;5075120;28;20103;-86
2023/12/15 08:59:34;;;;;;;73.55;21.38;;;;;;;-148.88;100.00;-17125.47;5073633;28;20491;-85
2023/12/15 09:02:00;;;;;;;71.55;21.08;;;;;;;-148.88;100.00;-17125.47;5074099;28;20059;-86
2023/12/15 09:04:25;;;;;;;87.05;20.52;;;;;;;-148.88;100.00;-17125.47;5075161;28;20102;-84
2023/12/15 09:06:51;;;;;;;72.88;21.65;;;;;;;-148.88;100.00;-17125.47;5073583;28;20150;-84
2023/12/15 09:09:27;;;;;;;;;;;;;;;;;;;;;
2023/12/15 09:11:58;;;;;;;79.78;22.95;;;;;;;-148.88;100.00;-17125.47;5075637;28;20034;-84
2023/12/15 09:14:26;;;;;;;72.13;21.35;;;;;;;-148.88;100.00;-17125.47;5073973;28;20028;-83
2023/12/15 09:16:54;;;;;;;77.35;21.02;;;;;;;-148.88;100.00;-17125.47;5075183;28;20059;-84
2023/12/15 09:19:42;;;;;;;86.10;22.13;;;;;;;-148.88;100.00;-17125.47;5073087;28;20040;-83
2023/12/15 09:22:13;;;;;;;69.63;20.15;;;;;;;-148.88;100.00;-17125.47;5074802;28;20051;-85
2023/12/15 09:24:38;;;;;;;79.20;20.73;;;;;;;-148.88;100.00;-17125.47;5076355;28;20020;-84
2023/12/15 09:27:10;;;;;;;67.22;19.10;;;;;;;-148.88;100.00;-17125.47;5073974;28;20371;-84
2023/12/15 09:29:35;;;;;;;71.22;20.00;;;;;;;-148.88;100.00;-17125.47;5073512;28;20051;-84
2023/12/15 09:32:05;;;;;;;71.35;20.65;;;;;;;-148.88;100.00;-17125.47;5073308;28;20558;-84
2023/12/15 09:34:39;;;;;;;60.95;19.30;;;;;;;-148.88;100.00;-17125.47;5072772;28;20422;-83
2023/12/15 09:37:05;;;;;;;67.65;18.23;;;;;;;-148.88;100.00;-17125.47;5073116;28;20554;-84
2023/12/15 09:39:30;;;;;;;69.43;19.13;;;;;;;-148.88;100.00;-17125.47;5074395;28;20055;-84
2023/12/15 09:42:01;;;;;;;65.93;19.30;;;;;;;-148.88;100.00;-17125.47;5073100;28;20438;-82
2023/12/15 09:44:27;;;;;;;60.22;18.95;;;;;;;-148.88;100.00;-17125.47;5073190;28;20032;-86
2023/12/15 09:46:52;;;;;;;60.65;18.80;;;;;;;-148.88;100.00;-17125.47;5073187;28;20150;-84
2023/12/15 09:49:20;;;;;;;62.97;17.60;;;;;;;-148.88;100.00;-17125.47;5074624;28;20032;-84
2023/12/15 09:51:49;;;;;;;64.20;18.23;;;;;;;-148.88;100.00;-17125.47;5073929;28;20055;-85
2023/12/15 09:54:16;;;;;;;66.90;19.67;;;;;;;-148.88;100.00;-17125.47;5074957;28;20028;-83
2023/12/15 09:56:42;;;;;;;56.83;17.40;;;;;;;-148.88;100.00;-17125.47;5073789;28;20024;-83
2023/12/15 09:59:11;;;;;;;69.70;18.02;;;;;;;-148.88;100.00;-17125.47;5073052;28;20016;-85
2023/12/15 10:01:39;;;;;;;56.42;18.17;;;;;;;-148.88;100.00;-17125.47;5074399;28;20074;-84
2023/12/15 10:04:35;;;;;;;58.00;17.65;;;;;;;-148.88;100.00;-17125.47;5072387;28;20115;-83
2023/12/15 10:07:00;;;;;;;53.88;16.92;;;;;;;-148.88;100.00;-17125.47;5073307;28;20024;-84
2023/12/15 10:09:28;;;;;;;55.78;17.33;;;;;;;-148.88;100.00;-17125.47;5073387;28;20025;-84
2023/12/15 10:11:54;;;;;;;64.80;18.40;;;;;;;-148.88;100.00;-17125.47;5072284;28;20509;-85
2023/12/15 10:14:19;;;;;;;70.03;17.65;;;;;;;-148.88;100.00;-17125.47;5073026;28;20020;-84
2023/12/15 10:16:46;;;;;;;59.15;17.83;;;;;;;-148.88;100.00;-17125.47;5072327;28;20032;-84
2023/12/15 10:19:16;;;;;;;63.88;17.38;;;;;;;-148.88;100.00;-17125.47;5072080;28;20052;-84
2023/12/15 10:21:42;;;;;;;63.00;16.55;;;;;;;-148.88;100.00;-17125.47;5072256;28;20016;-84
2023/12/15 10:24:22;;;;;;;64.68;18.35;;;;;;;-148.88;100.00;-17125.47;5072342;28;20428;-84
2023/12/15 10:27:02;;;;;;;60.38;18.27;;;;;;;-148.88;100.00;-17125.47;5073346;28;20086;-83
2023/12/15 10:29:37;;;;;;;49.22;17.67;;;;;;;-148.88;100.00;-17125.47;5073087;28;20071;-82
2023/12/15 10:32:07;;;;;;;63.38;17.88;;;;;;;-148.88;100.00;-17125.47;5073932;28;20368;-84
2023/12/15 10:34:36;;;;;;;58.75;16.15;;;;;;;-148.88;100.00;-17125.47;5072369;28;20036;-84
2023/12/15 10:37:04;;;;;;;57.67;16.08;;;;;;;-148.88;100.00;-17125.47;5073017;28;20078;-83
2023/12/15 10:39:36;;;;;;;64.55;15.57;;;;;;;-148.88;100.00;-17125.47;5072279;28;20028;-84
2023/12/15 10:42:03;;;;;;;92.95;37.63;;;;;;;-148.88;100.00;-17125.47;5072409;28;20515;-84
2023/12/15 10:44:40;;;;;;;46.05;16.20;;;;;;;-148.88;100.00;-17125.47;5072060;28;20459;-85
2023/12/15 10:47:12;;;;;;;47.25;14.82;;;;;;;-148.88;100.00;-17125.47;5071815;28;20029;-84